Date,TemperatureHighF,TemperatureAvgF,TemperatureLowF,DewpointHighF,DewpointAvgF,DewpointLowF,HumidityHigh,HumidityAvg,HumidityLow,PressureMaxIn,PressureMinIn,WindSpeedMaxMPH,WindSpeedAvgMPH,GustSpeedMaxMPH,PrecipitationSumIn
2013-4-1,63,52,44,44,41,38,82,68,44,30.09,29.92,14,3,14,0.00
2013-4-2,63,49,39,43,39,36,89,69,43,30.16,30.08,13,3,13,0.00
2013-4-3,68,52,39,40,34,26,87,57,22,30.14,29.94,16,4,16,0.00
2013-4-4,63,52,43,43,38,34,86,60,42,29.94,29.66,30,5,30,0.00
2013-4-5,56,45,40,43,38,33,89,75,49,29.97,29.84,26,7,26,0.00
2013-4-6,50,44,39,39,36,30,92,75,49,29.99,29.78,28,6,28,0.00
2013-4-7,48,40,33,38,32,24,91,73,48,29.88,29.64,30,6,30,0.00
2013-4-8,47,37,28,29,26,22,84,64,46,30.29,29.88,18,4,18,0.00
2013-4-9,61,43,29,38,29,20,89,62,22,30.38,30.28,13,2,13,0.00
2013-4-10,60,49,36,45,37,30,83,65,37,30.29,30.06,26,6,26,0.00
2013-4-11,57,41,29,31,28,23,91,62,29,30.24,30.14,12,2,14,0.00
2013-4-12,61,44,30,36,28,11,85,59,15,30.16,29.73,27,6,27,0.00
2013-4-13,48,40,30,35,24,18,76,54,33,30.05,29.73,23,5,23,0.00
2013-4-14,44,34,27,31,24,19,91,67,41,30.07,29.91,12,2,12,0.00
2013-4-15,41,32,29,34,30,26,96,90,72,30.18,29.92,15,2,15,0.01
2013-4-16,44,34,30,34,30,25,96,83,55,30.42,30.18,12,3,12,0.00
2013-4-17,53,38,27,28,24,15,85,58,31,30.52,30.42,15,2,15,0.00
2013-4-18,62,46,34,40,34,27,80,65,43,30.45,30.30,14,3,14,0.00
2013-4-19,57,48,38,41,38,32,86,68,44,30.30,30.10,23,6,23,0.00
2013-4-20,59,46,36,35,33,28,88,64,33,30.26,30.19,14,4,14,0.00
2013-4-21,62,47,36,41,36,31,84,65,39,30.21,30.14,16,4,16,0.00
2013-4-22,55,44,33,36,27,19,87,57,26,30.43,30.21,15,3,15,0.00
2013-4-23,64,45,28,21,15,2,64,35,9,30.42,30.14,15,2,15,0.00
2013-4-24,71,50,32,23,19,15,57,33,13,30.30,30.04,11,1,11,0.00
2013-4-25,74,57,42,37,29,20,52,35,23,30.10,29.99,20,4,20,0.00
2013-4-26,78,60,45,39,32,19,67,40,12,30.20,30.10,19,3,19,0.01
2013-4-27,70,58,45,38,32,25,63,39,20,30.20,30.09,23,5,23,0.00
2013-4-28,66,53,41,37,32,25,76,47,23,30.15,30.03,22,3,22,0.00
2013-4-29,58,49,34,42,34,25,82,57,32,30.03,29.92,24,6,24,0.00
2013-4-30,53,38,26,26,22,17,82,55,25,30.44,30.03,18,3,18,0.00